sensor_id;sensor_type;location;lat;lon;timestamp;pressure;altitude;pressure_sealevel;temperature;humidity
47592;BME280;33317;33.356;-117.184;2023-07-28T00:00:39;98921.03;;;30.22;22.55
47592;BME280;33317;33.356;-117.184;2023-07-28T00:03:07;98920.31;;;29.88;22.52
47592;BME280;33317;33.356;-117.184;2023-07-28T00:05:36;98919.96;;;30.02;22.74
47592;BME280;33317;33.356;-117.184;2023-07-28T00:08:05;98923.15;;;30.43;22.31
47592;BME280;33317;33.356;-117.184;2023-07-28T00:10:33;98919.69;;;30.45;22.15
47592;BME280;33317;33.356;-117.184;2023-07-28T00:13:01;98924.11;;;30.52;22.06
47592;BME280;33317;33.356;-117.184;2023-07-28T00:15:31;98923.69;;;30.05;22.22
47592;BME280;33317;33.356;-117.184;2023-07-28T00:17:59;98929.79;;;29.91;22.67
47592;BME280;33317;33.356;-117.184;2023-07-28T00:20:28;98924.90;;;29.94;22.65
47592;BME280;33317;33.356;-117.184;2023-07-28T00:22:56;98922.89;;;30.12;22.75
47592;BME280;33317;33.356;-117.184;2023-07-28T00:25:24;98925.56;;;30.33;22.28
47592;BME280;33317;33.356;-117.184;2023-07-28T00:27:53;98927.05;;;30.32;22.05
47592;BME280;33317;33.356;-117.184;2023-07-28T00:30:21;98928.76;;;30.01;22.60
47592;BME280;33317;33.356;-117.184;2023-07-28T00:32:49;98934.86;;;29.98;22.56
47592;BME280;33317;33.356;-117.184;2023-07-28T00:35:18;98939.50;;;29.86;22.44
47592;BME280;33317;33.356;-117.184;2023-07-28T00:37:46;98941.95;;;30.31;22.33
47592;BME280;33317;33.356;-117.184;2023-07-28T00:40:15;98939.55;;;30.50;22.06
47592;BME280;33317;33.356;-117.184;2023-07-28T00:42:43;98938.01;;;30.24;21.97
47592;BME280;33317;33.356;-117.184;2023-07-28T00:45:11;98936.78;;;30.32;21.88
47592;BME280;33317;33.356;-117.184;2023-07-28T00:47:40;98933.59;;;30.20;21.84
47592;BME280;33317;33.356;-117.184;2023-07-28T00:50:10;98937.59;;;30.09;22.40
47592;BME280;33317;33.356;-117.184;2023-07-28T00:52:39;98940.49;;;30.03;22.50
47592;BME280;33317;33.356;-117.184;2023-07-28T00:55:08;98939.00;;;29.71;22.83
47592;BME280;33317;33.356;-117.184;2023-07-28T00:57:36;98941.83;;;29.84;22.51
47592;BME280;33317;33.356;-117.184;2023-07-28T01:00:05;98942.87;;;30.04;22.05
47592;BME280;33317;33.356;-117.184;2023-07-28T01:02:33;98951.97;;;29.87;22.03
47592;BME280;33317;33.356;-117.184;2023-07-28T01:05:02;98964.84;;;29.73;22.67
47592;BME280;33317;33.356;-117.184;2023-07-28T01:07:36;98970.75;;;30.05;22.64
47592;BME280;33317;33.356;-117.184;2023-07-28T01:10:10;98969.64;;;30.36;22.44
47592;BME280;33317;33.356;-117.184;2023-07-28T01:12:39;98960.66;;;30.46;22.49
47592;BME280;33317;33.356;-117.184;2023-07-28T01:15:08;98952.05;;;30.41;22.31
47592;BME280;33317;33.356;-117.184;2023-07-28T01:17:36;98950.00;;;30.21;22.30
47592;BME280;33317;33.356;-117.184;2023-07-28T01:20:06;98948.83;;;30.48;22.32
47592;BME280;33317;33.356;-117.184;2023-07-28T01:22:48;98955.42;;;30.26;22.88
47592;BME280;33317;33.356;-117.184;2023-07-28T01:25:28;98957.15;;;30.34;22.89
47592;BME280;33317;33.356;-117.184;2023-07-28T01:28:01;98952.26;;;30.38;23.08
47592;BME280;33317;33.356;-117.184;2023-07-28T01:30:29;98947.33;;;30.60;22.72
47592;BME280;33317;33.356;-117.184;2023-07-28T01:32:58;98951.15;;;29.89;22.69
47592;BME280;33317;33.356;-117.184;2023-07-28T01:35:32;98950.56;;;30.09;22.63
47592;BME280;33317;33.356;-117.184;2023-07-28T01:38:00;98950.09;;;30.08;22.75
47592;BME280;33317;33.356;-117.184;2023-07-28T01:40:28;98947.22;;;29.85;23.39
47592;BME280;33317;33.356;-117.184;2023-07-28T01:42:56;98950.12;;;30.35;23.38
47592;BME280;33317;33.356;-117.184;2023-07-28T01:45:25;98955.38;;;30.44;23.45
47592;BME280;33317;33.356;-117.184;2023-07-28T01:47:53;98958.12;;;30.37;23.07
47592;BME280;33317;33.356;-117.184;2023-07-28T01:50:21;98961.69;;;30.30;22.78
47592;BME280;33317;33.356;-117.184;2023-07-28T01:52:50;98969.46;;;30.29;22.71
47592;BME280;33317;33.356;-117.184;2023-07-28T01:55:18;98970.02;;;30.30;22.64
47592;BME280;33317;33.356;-117.184;2023-07-28T01:57:55;98971.99;;;30.04;23.27
47592;BME280;33317;33.356;-117.184;2023-07-28T02:00:24;98973.78;;;30.15;23.23
47592;BME280;33317;33.356;-117.184;2023-07-28T02:02:53;98970.84;;;30.29;23.29
47592;BME280;33317;33.356;-117.184;2023-07-28T02:05:22;98967.74;;;30.37;23.01
47592;BME280;33317;33.356;-117.184;2023-07-28T02:07:50;98965.82;;;30.17;22.86
47592;BME280;33317;33.356;-117.184;2023-07-28T02:10:19;98958.35;;;30.41;22.78
47592;BME280;33317;33.356;-117.184;2023-07-28T02:12:47;98958.52;;;29.86;23.42
47592;BME280;33317;33.356;-117.184;2023-07-28T02:15:16;98958.70;;;29.81;23.49
47592;BME280;33317;33.356;-117.184;2023-07-28T02:17:44;98964.93;;;29.84;23.47
47592;BME280;33317;33.356;-117.184;2023-07-28T02:20:13;98972.77;;;29.99;23.59
47592;BME280;33317;33.356;-117.184;2023-07-28T02:22:42;98976.20;;;30.10;23.45
47592;BME280;33317;33.356;-117.184;2023-07-28T02:25:12;98979.32;;;30.20;23.49
47592;BME280;33317;33.356;-117.184;2023-07-28T02:27:40;98982.30;;;30.60;23.22
47592;BME280;33317;33.356;-117.184;2023-07-28T02:30:08;98983.19;;;30.04;23.62
47592;BME280;33317;33.356;-117.184;2023-07-28T02:32:37;98983.67;;;29.78;23.81
47592;BME280;33317;33.356;-117.184;2023-07-28T02:35:06;98981.69;;;29.02;24.60
47592;BME280;33317;33.356;-117.184;2023-07-28T02:37:35;98981.29;;;29.43;24.27
47592;BME280;33317;33.356;-117.184;2023-07-28T02:40:04;98982.86;;;29.15;24.07
47592;BME280;33317;33.356;-117.184;2023-07-28T02:42:32;98991.80;;;29.83;23.50
47592;BME280;33317;33.356;-117.184;2023-07-28T02:45:01;98996.17;;;29.87;23.51
47592;BME280;33317;33.356;-117.184;2023-07-28T02:47:29;99000.06;;;28.89;23.76
47592;BME280;33317;33.356;-117.184;2023-07-28T02:49:58;99000.86;;;29.43;23.44
47592;BME280;33317;33.356;-117.184;2023-07-28T02:52:26;99001.07;;;29.04;23.66
47592;BME280;33317;33.356;-117.184;2023-07-28T02:54:55;98997.77;;;29.46;23.35
47592;BME280;33317;33.356;-117.184;2023-07-28T02:57:23;98991.78;;;29.35;23.59
47592;BME280;33317;33.356;-117.184;2023-07-28T02:59:53;98988.44;;;29.51;23.84
47592;BME280;33317;33.356;-117.184;2023-07-28T03:02:21;98982.90;;;29.51;23.54
47592;BME280;33317;33.356;-117.184;2023-07-28T03:04:49;98974.82;;;29.14;23.64
47592;BME280;33317;33.356;-117.184;2023-07-28T03:07:18;98979.33;;;28.29;24.12
47592;BME280;33317;33.356;-117.184;2023-07-28T03:09:48;98992.78;;;29.10;23.65
47592;BME280;33317;33.356;-117.184;2023-07-28T03:12:17;99003.51;;;29.68;23.73
47592;BME280;33317;33.356;-117.184;2023-07-28T03:14:45;99016.43;;;29.93;23.59
47592;BME280;33317;33.356;-117.184;2023-07-28T03:17:14;99011.25;;;29.99;23.67
47592;BME280;33317;33.356;-117.184;2023-07-28T03:19:42;99002.29;;;29.77;23.14
47592;BME280;33317;33.356;-117.184;2023-07-28T03:22:11;99003.83;;;29.66;22.84
47592;BME280;33317;33.356;-117.184;2023-07-28T03:24:39;99011.66;;;28.76;23.77
47592;BME280;33317;33.356;-117.184;2023-07-28T03:27:07;99022.36;;;29.20;23.49
47592;BME280;33317;33.356;-117.184;2023-07-28T03:29:36;99017.64;;;29.67;23.59
47592;BME280;33317;33.356;-117.184;2023-07-28T03:32:06;99006.70;;;29.59;23.52
47592;BME280;33317;33.356;-117.184;2023-07-28T03:34:34;99010.34;;;29.83;23.22
47592;BME280;33317;33.356;-117.184;2023-07-28T03:37:03;99010.00;;;29.47;23.38
47592;BME280;33317;33.356;-117.184;2023-07-28T03:39:32;99010.22;;;29.92;23.12
47592;BME280;33317;33.356;-117.184;2023-07-28T03:42:00;99002.95;;;29.53;23.12
47592;BME280;33317;33.356;-117.184;2023-07-28T03:44:28;98996.69;;;29.73;23.05
47592;BME280;33317;33.356;-117.184;2023-07-28T03:46:57;99004.05;;;27.48;24.89
47592;BME280;33317;33.356;-117.184;2023-07-28T03:49:26;99008.32;;;28.54;23.52
47592;BME280;33317;33.356;-117.184;2023-07-28T03:51:56;99016.61;;;29.08;22.98
47592;BME280;33317;33.356;-117.184;2023-07-28T03:54:24;99019.07;;;29.12;23.54
47592;BME280;33317;33.356;-117.184;2023-07-28T03:56:55;99023.98;;;29.33;23.43
47592;BME280;33317;33.356;-117.184;2023-07-28T03:59:25;99034.96;;;29.39;23.49
47592;BME280;33317;33.356;-117.184;2023-07-28T04:01:56;99034.30;;;29.50;23.10
47592;BME280;33317;33.356;-117.184;2023-07-28T04:04:24;99030.56;;;29.43;23.01
47592;BME280;33317;33.356;-117.184;2023-07-28T04:06:52;99030.22;;;29.65;23.17
47592;BME280;33317;33.356;-117.184;2023-07-28T04:09:21;99027.12;;;29.39;23.41
47592;BME280;33317;33.356;-117.184;2023-07-28T04:11:50;99021.24;;;29.55;23.38
47592;BME280;33317;33.356;-117.184;2023-07-28T04:14:18;99024.04;;;29.66;23.26
47592;BME280;33317;33.356;-117.184;2023-07-28T04:16:48;99026.88;;;29.96;23.46
47592;BME280;33317;33.356;-117.184;2023-07-28T04:19:16;99032.22;;;30.07;22.96
47592;BME280;33317;33.356;-117.184;2023-07-28T04:21:44;99033.40;;;29.68;22.88
47592;BME280;33317;33.356;-117.184;2023-07-28T04:24:15;99032.05;;;30.01;23.08
47592;BME280;33317;33.356;-117.184;2023-07-28T04:26:43;99029.31;;;29.42;23.54
47592;BME280;33317;33.356;-117.184;2023-07-28T04:29:11;99019.86;;;29.44;23.71
47592;BME280;33317;33.356;-117.184;2023-07-28T04:31:40;99011.42;;;29.75;23.65
47592;BME280;33317;33.356;-117.184;2023-07-28T04:34:08;99019.81;;;30.11;23.37
47592;BME280;33317;33.356;-117.184;2023-07-28T04:36:36;99021.33;;;29.82;23.12
47592;BME280;33317;33.356;-117.184;2023-07-28T04:39:05;99018.86;;;29.13;23.67
47592;BME280;33317;33.356;-117.184;2023-07-28T04:41:33;99022.21;;;29.27;23.03
47592;BME280;33317;33.356;-117.184;2023-07-28T04:44:02;99029.16;;;29.30;23.45
47592;BME280;33317;33.356;-117.184;2023-07-28T04:46:30;99032.36;;;29.39;23.59
47592;BME280;33317;33.356;-117.184;2023-07-28T04:48:58;99028.53;;;29.42;23.42
47592;BME280;33317;33.356;-117.184;2023-07-28T04:51:28;99028.40;;;29.80;23.49
47592;BME280;33317;33.356;-117.184;2023-07-28T04:53:57;99027.08;;;29.49;23.36
47592;BME280;33317;33.356;-117.184;2023-07-28T04:56:26;99025.40;;;29.93;23.01
47592;BME280;33317;33.356;-117.184;2023-07-28T04:58:55;99028.31;;;28.94;23.42
47592;BME280;33317;33.356;-117.184;2023-07-28T05:01:23;99026.89;;;29.42;23.67
47592;BME280;33317;33.356;-117.184;2023-07-28T05:03:54;99024.29;;;29.45;23.71
47592;BME280;33317;33.356;-117.184;2023-07-28T05:06:24;99021.55;;;29.38;23.55
47592;BME280;33317;33.356;-117.184;2023-07-28T05:09:02;99026.66;;;30.18;23.38
47592;BME280;33317;33.356;-117.184;2023-07-28T05:11:30;99025.57;;;30.11;23.45
47592;BME280;33317;33.356;-117.184;2023-07-28T05:13:59;99026.95;;;30.23;23.38
47592;BME280;33317;33.356;-117.184;2023-07-28T05:16:28;99032.51;;;30.08;23.51
47592;BME280;33317;33.356;-117.184;2023-07-28T05:18:57;99040.98;;;30.38;23.52
47592;BME280;33317;33.356;-117.184;2023-07-28T05:21:25;99051.73;;;30.24;23.45
47592;BME280;33317;33.356;-117.184;2023-07-28T05:23:53;99057.39;;;30.25;23.43
47592;BME280;33317;33.356;-117.184;2023-07-28T05:26:22;99058.77;;;30.29;23.44
47592;BME280;33317;33.356;-117.184;2023-07-28T05:28:50;99053.34;;;30.35;23.45
47592;BME280;33317;33.356;-117.184;2023-07-28T05:31:19;99047.48;;;30.04;23.89
47592;BME280;33317;33.356;-117.184;2023-07-28T05:33:47;99042.63;;;30.35;23.62
47592;BME280;33317;33.356;-117.184;2023-07-28T05:36:15;99035.55;;;30.37;23.59
47592;BME280;33317;33.356;-117.184;2023-07-28T05:38:44;99031.40;;;30.39;23.59
47592;BME280;33317;33.356;-117.184;2023-07-28T05:41:12;99031.35;;;30.39;23.64
47592;BME280;33317;33.356;-117.184;2023-07-28T05:43:41;99039.80;;;30.47;23.83
47592;BME280;33317;33.356;-117.184;2023-07-28T05:46:10;99043.44;;;30.50;23.75
47592;BME280;33317;33.356;-117.184;2023-07-28T05:48:39;99045.46;;;30.51;23.89
47592;BME280;33317;33.356;-117.184;2023-07-28T05:51:07;99037.81;;;30.77;23.80
47592;BME280;33317;33.356;-117.184;2023-07-28T05:53:36;99032.46;;;30.54;23.99
47592;BME280;33317;33.356;-117.184;2023-07-28T05:56:04;99037.29;;;30.58;24.10
47592;BME280;33317;33.356;-117.184;2023-07-28T05:58:32;99042.86;;;30.63;23.92
47592;BME280;33317;33.356;-117.184;2023-07-28T06:01:00;99044.56;;;30.62;23.87
47592;BME280;33317;33.356;-117.184;2023-07-28T06:03:29;99046.08;;;30.64;23.88
47592;BME280;33317;33.356;-117.184;2023-07-28T06:05:57;99045.43;;;30.63;24.15
47592;BME280;33317;33.356;-117.184;2023-07-28T06:08:26;99045.52;;;30.86;24.11
47592;BME280;33317;33.356;-117.184;2023-07-28T06:10:54;99038.88;;;30.85;24.15
47592;BME280;33317;33.356;-117.184;2023-07-28T06:13:23;99034.19;;;30.85;24.30
47592;BME280;33317;33.356;-117.184;2023-07-28T06:15:53;99029.48;;;30.59;24.27
47592;BME280;33317;33.356;-117.184;2023-07-28T06:18:21;99027.94;;;30.59;24.23
47592;BME280;33317;33.356;-117.184;2023-07-28T06:20:50;99028.24;;;30.57;24.40
47592;BME280;33317;33.356;-117.184;2023-07-28T06:23:18;99030.13;;;30.58;24.31
47592;BME280;33317;33.356;-117.184;2023-07-28T06:25:46;99027.86;;;30.58;24.48
47592;BME280;33317;33.356;-117.184;2023-07-28T06:28:15;99023.08;;;30.54;24.54
47592;BME280;33317;33.356;-117.184;2023-07-28T06:30:43;99016.54;;;30.53;24.62
47592;BME280;33317;33.356;-117.184;2023-07-28T06:33:11;99012.51;;;30.76;24.82
47592;BME280;33317;33.356;-117.184;2023-07-28T06:35:40;99013.26;;;30.56;24.52
47592;BME280;33317;33.356;-117.184;2023-07-28T06:38:08;99015.23;;;30.79;24.71
47592;BME280;33317;33.356;-117.184;2023-07-28T06:40:37;99017.13;;;30.57;24.74
47592;BME280;33317;33.356;-117.184;2023-07-28T06:43:05;99016.70;;;30.60;24.74
47592;BME280;33317;33.356;-117.184;2023-07-28T06:45:34;99013.56;;;30.59;24.70
47592;BME280;33317;33.356;-117.184;2023-07-28T06:48:02;99012.43;;;30.58;24.74
47592;BME280;33317;33.356;-117.184;2023-07-28T06:50:31;99012.19;;;30.56;24.88
47592;BME280;33317;33.356;-117.184;2023-07-28T06:52:59;99006.50;;;30.56;24.87
47592;BME280;33317;33.356;-117.184;2023-07-28T06:55:27;98998.03;;;30.78;24.80
47592;BME280;33317;33.356;-117.184;2023-07-28T06:57:57;98997.48;;;30.56;24.93
47592;BME280;33317;33.356;-117.184;2023-07-28T07:00:26;98998.46;;;30.59;24.81
47592;BME280;33317;33.356;-117.184;2023-07-28T07:02:54;98997.56;;;30.64;24.98
47592;BME280;33317;33.356;-117.184;2023-07-28T07:05:23;98998.72;;;30.59;25.00
47592;BME280;33317;33.356;-117.184;2023-07-28T07:07:51;99000.12;;;30.57;25.19
47592;BME280;33317;33.356;-117.184;2023-07-28T07:10:20;98999.19;;;30.78;24.94
47592;BME280;33317;33.356;-117.184;2023-07-28T07:12:48;98996.08;;;30.54;25.25
47592;BME280;33317;33.356;-117.184;2023-07-28T07:15:17;98993.68;;;30.51;25.31
47592;BME280;33317;33.356;-117.184;2023-07-28T07:17:45;98991.91;;;30.76;25.54
47592;BME280;33317;33.356;-117.184;2023-07-28T07:20:14;98991.75;;;30.52;25.33
47592;BME280;33317;33.356;-117.184;2023-07-28T07:22:42;98992.21;;;30.72;25.29
47592;BME280;33317;33.356;-117.184;2023-07-28T07:25:10;98994.27;;;30.50;25.31
47592;BME280;33317;33.356;-117.184;2023-07-28T07:27:39;98995.28;;;30.70;25.36
47592;BME280;33317;33.356;-117.184;2023-07-28T07:30:08;98993.80;;;30.46;25.36
47592;BME280;33317;33.356;-117.184;2023-07-28T07:32:37;98988.40;;;30.44;25.54
47592;BME280;33317;33.356;-117.184;2023-07-28T07:35:06;98986.16;;;30.45;25.33
47592;BME280;33317;33.356;-117.184;2023-07-28T07:37:36;98983.90;;;30.44;25.45
47592;BME280;33317;33.356;-117.184;2023-07-28T07:40:04;98980.74;;;30.63;25.53
47592;BME280;33317;33.356;-117.184;2023-07-28T07:42:42;98981.21;;;30.41;25.43
47592;BME280;33317;33.356;-117.184;2023-07-28T07:45:11;98979.59;;;30.38;25.49
47592;BME280;33317;33.356;-117.184;2023-07-28T07:47:40;98974.53;;;30.59;25.49
47592;BME280;33317;33.356;-117.184;2023-07-28T07:50:10;98976.39;;;30.36;25.53
47592;BME280;33317;33.356;-117.184;2023-07-28T07:52:39;98974.76;;;30.34;25.45
47592;BME280;33317;33.356;-117.184;2023-07-28T07:55:08;98972.29;;;30.82;25.48
47592;BME280;33317;33.356;-117.184;2023-07-28T07:57:37;98968.67;;;30.32;25.34
47592;BME280;33317;33.356;-117.184;2023-07-28T08:00:06;98963.84;;;30.53;25.54
47592;BME280;33317;33.356;-117.184;2023-07-28T08:02:35;98959.48;;;30.51;25.65
47592;BME280;33317;33.356;-117.184;2023-07-28T08:05:03;98951.09;;;30.50;25.46
47592;BME280;33317;33.356;-117.184;2023-07-28T08:07:32;98950.47;;;30.48;25.60
47592;BME280;33317;33.356;-117.184;2023-07-28T08:10:01;98946.64;;;30.46;25.62
47592;BME280;33317;33.356;-117.184;2023-07-28T08:12:29;98950.54;;;30.40;25.71
47592;BME280;33317;33.356;-117.184;2023-07-28T08:14:57;98947.07;;;30.39;25.73
47592;BME280;33317;33.356;-117.184;2023-07-28T08:17:26;98942.45;;;30.35;25.58
47592;BME280;33317;33.356;-117.184;2023-07-28T08:19:54;98937.18;;;30.36;25.69
47592;BME280;33317;33.356;-117.184;2023-07-28T08:22:22;98936.56;;;30.34;25.63
47592;BME280;33317;33.356;-117.184;2023-07-28T08:24:51;98936.56;;;30.04;25.87
47592;BME280;33317;33.356;-117.184;2023-07-28T08:27:19;98936.14;;;30.51;25.77
47592;BME280;33317;33.356;-117.184;2023-07-28T08:29:48;98937.81;;;30.26;25.95
47592;BME280;33317;33.356;-117.184;2023-07-28T08:32:16;98938.01;;;30.26;25.78
47592;BME280;33317;33.356;-117.184;2023-07-28T08:34:44;98937.55;;;30.50;25.89
47592;BME280;33317;33.356;-117.184;2023-07-28T08:37:12;98934.92;;;30.22;25.81
47592;BME280;33317;33.356;-117.184;2023-07-28T08:39:41;98934.50;;;30.45;25.89
47592;BME280;33317;33.356;-117.184;2023-07-28T08:42:09;98936.08;;;30.19;25.92
47592;BME280;33317;33.356;-117.184;2023-07-28T08:44:38;98934.79;;;30.44;25.83
47592;BME280;33317;33.356;-117.184;2023-07-28T08:47:06;98931.76;;;30.15;25.79
47592;BME280;33317;33.356;-117.184;2023-07-28T08:49:34;98930.27;;;30.16;25.95
47592;BME280;33317;33.356;-117.184;2023-07-28T08:52:04;98931.22;;;30.42;25.94
47592;BME280;33317;33.356;-117.184;2023-07-28T08:54:32;98929.32;;;30.41;25.89
47592;BME280;33317;33.356;-117.184;2023-07-28T08:57:00;98932.44;;;30.34;25.82
47592;BME280;33317;33.356;-117.184;2023-07-28T08:59:29;98934.91;;;29.99;26.06
47592;BME280;33317;33.356;-117.184;2023-07-28T09:01:58;98933.00;;;30.14;26.19
47592;BME280;33317;33.356;-117.184;2023-07-28T09:04:26;98928.41;;;29.89;26.18
47592;BME280;33317;33.356;-117.184;2023-07-28T09:06:55;98925.51;;;29.90;26.37
47592;BME280;33317;33.356;-117.184;2023-07-28T09:09:24;98921.56;;;29.93;26.36
47592;BME280;33317;33.356;-117.184;2023-07-28T09:11:53;98923.05;;;29.70;26.40
47592;BME280;33317;33.356;-117.184;2023-07-28T09:14:22;98925.34;;;30.14;26.48
47592;BME280;33317;33.356;-117.184;2023-07-28T09:16:51;98922.50;;;29.79;26.40
47592;BME280;33317;33.356;-117.184;2023-07-28T09:19:21;98919.82;;;30.15;26.35
47592;BME280;33317;33.356;-117.184;2023-07-28T09:22:00;98914.48;;;30.04;26.51
47592;BME280;33317;33.356;-117.184;2023-07-28T09:24:32;98914.03;;;30.13;26.52
47592;BME280;33317;33.356;-117.184;2023-07-28T09:27:03;98914.40;;;29.81;26.50
47592;BME280;33317;33.356;-117.184;2023-07-28T09:29:31;98908.68;;;30.03;26.47
47592;BME280;33317;33.356;-117.184;2023-07-28T09:32:05;98898.55;;;29.66;26.58
47592;BME280;33317;33.356;-117.184;2023-07-28T09:34:33;98892.21;;;29.69;26.33
47592;BME280;33317;33.356;-117.184;2023-07-28T09:37:04;98892.97;;;29.83;26.52
47592;BME280;33317;33.356;-117.184;2023-07-28T09:39:34;98894.81;;;29.72;26.78
47592;BME280;33317;33.356;-117.184;2023-07-28T09:42:04;98893.93;;;29.40;26.52
47592;BME280;33317;33.356;-117.184;2023-07-28T09:44:34;98889.80;;;29.74;26.69
47592;BME280;33317;33.356;-117.184;2023-07-28T09:47:03;98885.27;;;29.75;26.70
47592;BME280;33317;33.356;-117.184;2023-07-28T09:49:36;98878.68;;;29.49;26.54
47592;BME280;33317;33.356;-117.184;2023-07-28T09:52:08;98876.41;;;29.40;26.64
47592;BME280;33317;33.356;-117.184;2023-07-28T09:54:40;98878.12;;;29.35;26.77
47592;BME280;33317;33.356;-117.184;2023-07-28T09:57:12;98878.92;;;29.37;26.93
47592;BME280;33317;33.356;-117.184;2023-07-28T09:59:42;98876.62;;;29.69;26.70
47592;BME280;33317;33.356;-117.184;2023-07-28T10:02:10;98870.02;;;29.73;27.00
47592;BME280;33317;33.356;-117.184;2023-07-28T10:04:38;98867.88;;;29.68;26.81
47592;BME280;33317;33.356;-117.184;2023-07-28T10:07:08;98868.42;;;29.77;26.89
47592;BME280;33317;33.356;-117.184;2023-07-28T10:09:37;98868.14;;;29.77;26.94
47592;BME280;33317;33.356;-117.184;2023-07-28T10:12:07;98872.10;;;29.77;26.88
47592;BME280;33317;33.356;-117.184;2023-07-28T10:14:45;98875.00;;;29.79;26.82
47592;BME280;33317;33.356;-117.184;2023-07-28T10:17:16;98877.37;;;29.78;26.94
47592;BME280;33317;33.356;-117.184;2023-07-28T10:19:44;98879.17;;;29.82;26.98
47592;BME280;33317;33.356;-117.184;2023-07-28T10:22:13;98883.02;;;29.75;27.00
47592;BME280;33317;33.356;-117.184;2023-07-28T10:25:01;98887.33;;;29.65;27.02
47592;BME280;33317;33.356;-117.184;2023-07-28T10:27:32;98889.46;;;29.43;27.17
47592;BME280;33317;33.356;-117.184;2023-07-28T10:30:07;98894.15;;;29.49;27.09
47592;BME280;33317;33.356;-117.184;2023-07-28T10:32:38;98897.93;;;29.43;27.21
47592;BME280;33317;33.356;-117.184;2023-07-28T10:35:09;98897.90;;;29.16;27.28
47592;BME280;33317;33.356;-117.184;2023-07-28T10:37:49;98896.99;;;29.31;27.27
47592;BME280;33317;33.356;-117.184;2023-07-28T10:40:29;98897.59;;;29.35;27.15
47592;BME280;33317;33.356;-117.184;2023-07-28T10:42:59;98899.76;;;29.22;27.23
47592;BME280;33317;33.356;-117.184;2023-07-28T10:45:28;98898.90;;;29.27;27.14
47592;BME280;33317;33.356;-117.184;2023-07-28T10:47:58;98899.06;;;29.08;27.45
47592;BME280;33317;33.356;-117.184;2023-07-28T10:50:28;98896.26;;;28.80;27.70
47592;BME280;33317;33.356;-117.184;2023-07-28T10:52:57;98895.93;;;29.41;27.30
47592;BME280;33317;33.356;-117.184;2023-07-28T10:55:26;98892.80;;;29.40;27.33
47592;BME280;33317;33.356;-117.184;2023-07-28T10:57:55;98886.38;;;29.28;27.20
47592;BME280;33317;33.356;-117.184;2023-07-28T11:00:23;98881.36;;;29.24;27.47
47592;BME280;33317;33.356;-117.184;2023-07-28T11:02:53;98878.10;;;29.34;27.29
47592;BME280;33317;33.356;-117.184;2023-07-28T11:05:23;98877.83;;;29.33;27.27
47592;BME280;33317;33.356;-117.184;2023-07-28T11:07:55;98879.18;;;29.09;27.38
47592;BME280;33317;33.356;-117.184;2023-07-28T11:10:25;98881.82;;;29.62;27.22
47592;BME280;33317;33.356;-117.184;2023-07-28T11:12:53;98885.39;;;29.82;27.32
47592;BME280;33317;33.356;-117.184;2023-07-28T11:15:21;98889.49;;;29.45;27.42
47592;BME280;33317;33.356;-117.184;2023-07-28T11:17:51;98890.68;;;29.43;27.32
47592;BME280;33317;33.356;-117.184;2023-07-28T11:20:20;98888.53;;;29.50;27.33
47592;BME280;33317;33.356;-117.184;2023-07-28T11:22:55;98888.16;;;29.49;27.30
47592;BME280;33317;33.356;-117.184;2023-07-28T11:25:25;98887.76;;;29.42;27.35
47592;BME280;33317;33.356;-117.184;2023-07-28T11:27:54;98885.39;;;29.53;27.44
47592;BME280;33317;33.356;-117.184;2023-07-28T11:30:23;98883.00;;;29.29;27.38
47592;BME280;33317;33.356;-117.184;2023-07-28T11:32:53;98880.91;;;29.17;27.42
47592;BME280;33317;33.356;-117.184;2023-07-28T11:35:22;98876.79;;;28.96;27.51
47592;BME280;33317;33.356;-117.184;2023-07-28T11:37:52;98876.38;;;29.32;27.52
47592;BME280;33317;33.356;-117.184;2023-07-28T11:40:22;98879.48;;;29.25;27.51
47592;BME280;33317;33.356;-117.184;2023-07-28T11:42:53;98884.25;;;28.94;27.69
47592;BME280;33317;33.356;-117.184;2023-07-28T11:45:23;98886.83;;;28.96;27.78
47592;BME280;33317;33.356;-117.184;2023-07-28T11:47:56;98894.72;;;28.99;27.69
47592;BME280;33317;33.356;-117.184;2023-07-28T11:50:26;98900.77;;;29.19;27.59
47592;BME280;33317;33.356;-117.184;2023-07-28T11:52:55;98909.85;;;29.60;27.66
47592;BME280;33317;33.356;-117.184;2023-07-28T11:55:25;98910.06;;;29.19;27.46
47592;BME280;33317;33.356;-117.184;2023-07-28T11:57:53;98910.55;;;29.19;27.52
47592;BME280;33317;33.356;-117.184;2023-07-28T12:00:30;98907.67;;;29.43;27.54
47592;BME280;33317;33.356;-117.184;2023-07-28T12:03:04;98903.65;;;29.22;27.61
47592;BME280;33317;33.356;-117.184;2023-07-28T12:05:33;98902.80;;;29.27;27.65
47592;BME280;33317;33.356;-117.184;2023-07-28T12:08:02;98902.83;;;29.29;27.71
47592;BME280;33317;33.356;-117.184;2023-07-28T12:10:31;98903.54;;;29.31;27.76
47592;BME280;33317;33.356;-117.184;2023-07-28T12:13:04;98906.80;;;29.27;27.56
47592;BME280;33317;33.356;-117.184;2023-07-28T12:15:33;98905.29;;;29.34;27.56
47592;BME280;33317;33.356;-117.184;2023-07-28T12:18:05;98906.83;;;29.33;27.49
47592;BME280;33317;33.356;-117.184;2023-07-28T12:20:36;98912.40;;;29.32;27.53
47592;BME280;33317;33.356;-117.184;2023-07-28T12:23:05;98909.79;;;29.12;27.75
47592;BME280;33317;33.356;-117.184;2023-07-28T12:25:34;98910.42;;;29.26;27.84
47592;BME280;33317;33.356;-117.184;2023-07-28T12:28:03;98913.00;;;29.27;27.72
47592;BME280;33317;33.356;-117.184;2023-07-28T12:30:32;98913.98;;;28.73;27.85
47592;BME280;33317;33.356;-117.184;2023-07-28T12:33:00;98919.73;;;29.03;27.74
47592;BME280;33317;33.356;-117.184;2023-07-28T12:35:30;98931.71;;;29.14;27.72
47592;BME280;33317;33.356;-117.184;2023-07-28T12:37:58;98928.85;;;29.01;27.83
47592;BME280;33317;33.356;-117.184;2023-07-28T12:40:27;98927.89;;;29.20;27.68